Terminal Aerodrome Forecast
Issued by NWS Paducah, KY

Home | Current Version | Previous Version | Text Only | Print | Product List | Glossary On
Versions: 1 2 3 4 5 6 7 8 9 10 11 12 13 14 15 16 17 18 19 20
000
FTUS43 KPAH 231424 AAC
TAFPAH
TAF AMD
KPAH 231424Z 2314/2412 29008KT P6SM OVC015
     FM231800 29010KT P6SM BKN025
     FM231900 27008KT P6SM SCT025 SCT080
     FM240100 29009KT P6SM SCT060=

USA.gov is the U.S. government's official web portal to all federal, state and local government web resources and services.